sensor_id;sensor_type;location;lat;lon;timestamp;pressure;altitude;pressure_sealevel;temperature;humidity
10014;BME280;45684;48.358;10.746;2022-12-24T10:06:39;96289.13;;;9.40;100.00
10014;BME280;45684;48.358;10.746;2022-12-24T10:09:18;96287.09;;;9.46;100.00
10014;BME280;45684;48.358;10.746;2022-12-24T10:11:53;96289.31;;;9.44;100.00
10014;BME280;45684;48.358;10.746;2022-12-24T10:14:37;96296.94;;;9.42;100.00
10014;BME280;45684;48.358;10.746;2022-12-24T10:17:21;96291.69;;;9.45;100.00
10014;BME280;45684;48.358;10.746;2022-12-24T10:22:52;96289.78;;;9.46;100.00
10014;BME280;45684;48.358;10.746;2022-12-24T10:25:28;96288.19;;;9.45;100.00
10014;BME280;45684;48.358;10.746;2022-12-24T10:27:59;96277.59;;;9.49;100.00
10014;BME280;45684;48.358;10.746;2022-12-24T10:30:27;96285.22;;;9.47;100.00
10014;BME280;45684;48.358;10.746;2022-12-24T10:32:55;96280.28;;;9.49;100.00
10014;BME280;45684;48.358;10.746;2022-12-24T10:35:26;96282.81;;;9.45;100.00
10014;BME280;45684;48.358;10.746;2022-12-24T10:37:56;96284.22;;;9.42;100.00
10014;BME280;45684;48.358;10.746;2022-12-24T10:40:29;96285.16;;;9.38;100.00
10014;BME280;45684;48.358;10.746;2022-12-24T10:42:58;96280.72;;;9.42;100.00
10014;BME280;45684;48.358;10.746;2022-12-24T10:45:36;96287.09;;;9.46;100.00
10014;BME280;45684;48.358;10.746;2022-12-24T10:48:08;96283.00;;;9.49;100.00
10014;BME280;45684;48.358;10.746;2022-12-24T10:50:50;96282.69;;;9.50;100.00
10014;BME280;45684;48.358;10.746;2022-12-24T10:53:23;96286.56;;;9.58;100.00
10014;BME280;45684;48.358;10.746;2022-12-24T10:56:00;96290.25;;;9.62;100.00
10014;BME280;45684;48.358;10.746;2022-12-24T10:58:29;96288.22;;;9.67;100.00
10014;BME280;45684;48.358;10.746;2022-12-24T11:00:57;96291.41;;;9.69;100.00
10014;BME280;45684;48.358;10.746;2022-12-24T11:03:29;96296.97;;;9.73;100.00
10014;BME280;45684;48.358;10.746;2022-12-24T11:06:00;96296.69;;;9.75;100.00
10014;BME280;45684;48.358;10.746;2022-12-24T11:08:29;96293.06;;;9.79;100.00
10014;BME280;45684;48.358;10.746;2022-12-24T11:10:59;96284.03;;;9.84;100.00
10014;BME280;45684;48.358;10.746;2022-12-24T11:13:29;96279.66;;;9.96;100.00
10014;BME280;45684;48.358;10.746;2022-12-24T11:16:06;96276.41;;;10.08;100.00
10014;BME280;45684;48.358;10.746;2022-12-24T11:18:43;96276.69;;;10.07;100.00
10014;BME280;45684;48.358;10.746;2022-12-24T11:21:22;96280.78;;;9.95;100.00
10014;BME280;45684;48.358;10.746;2022-12-24T11:23:54;96270.56;;;9.92;100.00
10014;BME280;45684;48.358;10.746;2022-12-24T11:26:25;96269.16;;;9.95;100.00
10014;BME280;45684;48.358;10.746;2022-12-24T11:29:14;96269.50;;;9.93;100.00
10014;BME280;45684;48.358;10.746;2022-12-24T11:31:43;96272.22;;;10.02;100.00
10014;BME280;45684;48.358;10.746;2022-12-24T11:34:22;96281.16;;;10.11;100.00
10014;BME280;45684;48.358;10.746;2022-12-24T11:36:52;96282.59;;;10.09;100.00
10014;BME280;45684;48.358;10.746;2022-12-24T11:39:23;96283.88;;;10.11;100.00
10014;BME280;45684;48.358;10.746;2022-12-24T11:41:52;96277.50;;;10.07;100.00
10014;BME280;45684;48.358;10.746;2022-12-24T11:44:24;96272.97;;;9.94;100.00
10014;BME280;45684;48.358;10.746;2022-12-24T11:46:53;96270.56;;;9.92;100.00
10014;BME280;45684;48.358;10.746;2022-12-24T11:49:25;96268.78;;;9.88;100.00
10014;BME280;45684;48.358;10.746;2022-12-24T11:52:10;96270.88;;;9.91;100.00
10014;BME280;45684;48.358;10.746;2022-12-24T11:54:44;96273.13;;;9.89;100.00
10014;BME280;45684;48.358;10.746;2022-12-24T11:57:16;96269.59;;;9.88;100.00
10014;BME280;45684;48.358;10.746;2022-12-24T11:59:47;96278.06;;;9.95;100.00
10014;BME280;45684;48.358;10.746;2022-12-24T12:02:20;96279.00;;;9.91;100.00
10014;BME280;45684;48.358;10.746;2022-12-24T12:04:53;96276.47;;;9.94;100.00
10014;BME280;45684;48.358;10.746;2022-12-24T12:07:25;96275.38;;;9.95;100.00
10014;BME280;45684;48.358;10.746;2022-12-24T12:09:58;96282.69;;;9.95;100.00
10014;BME280;45684;48.358;10.746;2022-12-24T12:12:32;96284.22;;;9.87;100.00
10014;BME280;45684;48.358;10.746;2022-12-24T12:15:04;96268.13;;;9.82;100.00
10014;BME280;45684;48.358;10.746;2022-12-24T12:17:38;96270.03;;;9.82;100.00
10014;BME280;45684;48.358;10.746;2022-12-24T12:20:11;96279.56;;;9.79;100.00
10014;BME280;45684;48.358;10.746;2022-12-24T12:22:45;96273.34;;;9.79;100.00
10014;BME280;45684;48.358;10.746;2022-12-24T12:25:21;96280.38;;;9.80;100.00
10014;BME280;45684;48.358;10.746;2022-12-24T12:27:51;96285.25;;;9.78;100.00
10014;BME280;45684;48.358;10.746;2022-12-24T12:30:21;96296.56;;;9.80;100.00
10014;BME280;45684;48.358;10.746;2022-12-24T12:32:52;96286.25;;;9.82;100.00
10014;BME280;45684;48.358;10.746;2022-12-24T12:35:28;96300.84;;;9.81;100.00
10014;BME280;45684;48.358;10.746;2022-12-24T12:38:00;96298.16;;;9.81;100.00
10014;BME280;45684;48.358;10.746;2022-12-24T12:40:40;96299.56;;;9.78;100.00
10014;BME280;45684;48.358;10.746;2022-12-24T12:43:17;96292.25;;;9.79;100.00
10014;BME280;45684;48.358;10.746;2022-12-24T12:45:52;96289.56;;;9.79;100.00
10014;BME280;45684;48.358;10.746;2022-12-24T12:48:55;96295.47;;;9.81;100.00
10014;BME280;45684;48.358;10.746;2022-12-24T12:51:35;96286.56;;;9.80;100.00
10014;BME280;45684;48.358;10.746;2022-12-24T12:54:27;96284.16;;;9.79;100.00
10014;BME280;45684;48.358;10.746;2022-12-24T12:57:04;96280.38;;;9.80;100.00
10014;BME280;45684;48.358;10.746;2022-12-24T12:59:42;96290.19;;;9.76;100.00
10014;BME280;45684;48.358;10.746;2022-12-24T13:02:24;96302.38;;;9.73;100.00
10014;BME280;45684;48.358;10.746;2022-12-24T13:05:29;96296.97;;;9.73;100.00
10014;BME280;45684;48.358;10.746;2022-12-24T13:08:17;96308.56;;;9.74;100.00
10014;BME280;45684;48.358;10.746;2022-12-24T13:10:52;96303.38;;;9.77;100.00
10014;BME280;45684;48.358;10.746;2022-12-24T13:13:45;96304.66;;;9.80;100.00
10014;BME280;45684;48.358;10.746;2022-12-24T13:19:30;96311.22;;;9.87;100.00
10014;BME280;45684;48.358;10.746;2022-12-24T13:22:04;96300.28;;;9.92;100.00
10014;BME280;45684;48.358;10.746;2022-12-24T13:24:32;96301.94;;;10.02;100.00
10014;BME280;45684;48.358;10.746;2022-12-24T13:27:04;96296.09;;;10.09;100.00
10014;BME280;45684;48.358;10.746;2022-12-24T13:29:42;96305.63;;;10.06;100.00
10014;BME280;45684;48.358;10.746;2022-12-24T13:32:48;96309.25;;;10.02;100.00
10014;BME280;45684;48.358;10.746;2022-12-24T13:35:34;96314.78;;;9.96;100.00
10014;BME280;45684;48.358;10.746;2022-12-24T13:38:30;96322.34;;;9.86;100.00
10014;BME280;45684;48.358;10.746;2022-12-24T13:44:26;96327.69;;;10.00;100.00
10014;BME280;45684;48.358;10.746;2022-12-24T13:47:20;96320.22;;;10.05;100.00
10014;BME280;45684;48.358;10.746;2022-12-24T13:50:16;96322.88;;;9.96;100.00
10014;BME280;45684;48.358;10.746;2022-12-24T13:52:50;96322.69;;;9.93;100.00
10014;BME280;45684;48.358;10.746;2022-12-24T13:55:20;96338.72;;;9.89;100.00
10014;BME280;45684;48.358;10.746;2022-12-24T13:57:54;96329.78;;;9.80;100.00
10014;BME280;45684;48.358;10.746;2022-12-24T14:00:40;96319.88;;;9.76;100.00
10014;BME280;45684;48.358;10.746;2022-12-24T14:03:34;96332.28;;;9.77;100.00
10014;BME280;45684;48.358;10.746;2022-12-24T14:06:08;96338.97;;;9.79;100.00
10014;BME280;45684;48.358;10.746;2022-12-24T14:08:42;96333.16;;;9.86;100.00
10014;BME280;45684;48.358;10.746;2022-12-24T14:11:16;96334.38;;;9.80;100.00
10014;BME280;45684;48.358;10.746;2022-12-24T14:13:54;96330.97;;;9.74;100.00
10014;BME280;45684;48.358;10.746;2022-12-24T14:16:24;96330.31;;;9.68;100.00
10014;BME280;45684;48.358;10.746;2022-12-24T14:19:02;96333.44;;;9.62;100.00
10014;BME280;45684;48.358;10.746;2022-12-24T14:21:32;96337.53;;;9.59;100.00
10014;BME280;45684;48.358;10.746;2022-12-24T14:24:02;96327.16;;;9.53;100.00
10014;BME280;45684;48.358;10.746;2022-12-24T14:26:34;96340.00;;;9.47;100.00
10014;BME280;45684;48.358;10.746;2022-12-24T14:29:05;96342.81;;;9.42;100.00
10014;BME280;45684;48.358;10.746;2022-12-24T14:31:34;96342.91;;;9.37;100.00
10014;BME280;45684;48.358;10.746;2022-12-24T14:34:11;96337.34;;;9.33;100.00
10014;BME280;45684;48.358;10.746;2022-12-24T14:36:43;96339.53;;;9.31;100.00
10014;BME280;45684;48.358;10.746;2022-12-24T14:39:23;96342.03;;;9.28;100.00
10014;BME280;45684;48.358;10.746;2022-12-24T14:42:03;96344.53;;;9.24;100.00
10014;BME280;45684;48.358;10.746;2022-12-24T14:44:40;96337.34;;;9.19;100.00
10014;BME280;45684;48.358;10.746;2022-12-24T14:47:29;96334.66;;;9.19;100.00
10014;BME280;45684;48.358;10.746;2022-12-24T14:50:22;96336.38;;;9.15;100.00
10014;BME280;45684;48.358;10.746;2022-12-24T14:53:03;96338.38;;;9.10;100.00
10014;BME280;45684;48.358;10.746;2022-12-24T14:55:45;96341.34;;;9.08;100.00
10014;BME280;45684;48.358;10.746;2022-12-24T14:58:25;96331.66;;;9.07;100.00
10014;BME280;45684;48.358;10.746;2022-12-24T15:00:55;96336.69;;;9.00;100.00
10014;BME280;45684;48.358;10.746;2022-12-24T15:03:25;96329.78;;;8.94;100.00
10014;BME280;45684;48.358;10.746;2022-12-24T15:05:57;96313.41;;;8.90;100.00
10014;BME280;45684;48.358;10.746;2022-12-24T15:08:29;96321.91;;;8.84;100.00
10014;BME280;45684;48.358;10.746;2022-12-24T15:11:03;96313.94;;;8.79;100.00
10014;BME280;45684;48.358;10.746;2022-12-24T15:13:35;96309.75;;;8.73;100.00
10014;BME280;45684;48.358;10.746;2022-12-24T15:16:05;96320.13;;;8.65;100.00
10014;BME280;45684;48.358;10.746;2022-12-24T15:18:37;96323.59;;;8.52;100.00
10014;BME280;45684;48.358;10.746;2022-12-24T15:21:14;96328.00;;;8.48;100.00
10014;BME280;45684;48.358;10.746;2022-12-24T15:23:46;96334.28;;;8.43;100.00
10014;BME280;45684;48.358;10.746;2022-12-24T15:26:20;96340.28;;;8.40;100.00
10014;BME280;45684;48.358;10.746;2022-12-24T15:28:48;96347.63;;;8.35;100.00
10014;BME280;45684;48.358;10.746;2022-12-24T15:31:25;96341.97;;;8.36;100.00
10014;BME280;45684;48.358;10.746;2022-12-24T15:33:54;96339.81;;;8.33;100.00
10014;BME280;45684;48.358;10.746;2022-12-24T15:36:26;96344.94;;;8.35;100.00
10014;BME280;45684;48.358;10.746;2022-12-24T15:38:56;96346.63;;;8.31;100.00
10014;BME280;45684;48.358;10.746;2022-12-24T15:41:27;96357.97;;;8.28;100.00
10014;BME280;45684;48.358;10.746;2022-12-24T15:44:00;96351.00;;;8.27;100.00
10014;BME280;45684;48.358;10.746;2022-12-24T15:46:30;96350.47;;;8.25;100.00
10014;BME280;45684;48.358;10.746;2022-12-24T15:49:00;96352.09;;;8.26;100.00
10014;BME280;45684;48.358;10.746;2022-12-24T15:51:32;96358.78;;;8.28;100.00
10014;BME280;45684;48.358;10.746;2022-12-24T15:54:12;96348.31;;;8.27;100.00
10014;BME280;45684;48.358;10.746;2022-12-24T15:56:43;96360.47;;;8.24;100.00
10014;BME280;45684;48.358;10.746;2022-12-24T15:59:20;96357.75;;;8.24;100.00
10014;BME280;45684;48.358;10.746;2022-12-24T16:01:50;96362.44;;;8.18;100.00
10014;BME280;45684;48.358;10.746;2022-12-24T16:04:21;96358.47;;;8.16;100.00
10014;BME280;45684;48.358;10.746;2022-12-24T16:06:55;96365.22;;;8.13;100.00
10014;BME280;45684;48.358;10.746;2022-12-24T16:09:44;96369.03;;;8.12;100.00
10014;BME280;45684;48.358;10.746;2022-12-24T16:12:16;96362.63;;;8.08;100.00
10014;BME280;45684;48.358;10.746;2022-12-24T16:14:46;96371.00;;;8.07;100.00
10014;BME280;45684;48.358;10.746;2022-12-24T16:17:18;96370.00;;;8.03;100.00
10014;BME280;45684;48.358;10.746;2022-12-24T16:19:47;96372.97;;;8.01;100.00
10014;BME280;45684;48.358;10.746;2022-12-24T16:22:19;96384.25;;;8.03;100.00
10014;BME280;45684;48.358;10.746;2022-12-24T16:25:20;96385.34;;;8.02;100.00
10014;BME280;45684;48.358;10.746;2022-12-24T16:27:48;96379.16;;;8.02;100.00
10014;BME280;45684;48.358;10.746;2022-12-24T16:30:17;96385.13;;;7.99;100.00
10014;BME280;45684;48.358;10.746;2022-12-24T16:32:47;96398.31;;;8.00;100.00
10014;BME280;45684;48.358;10.746;2022-12-24T16:35:24;96405.28;;;8.01;100.00
10014;BME280;45684;48.358;10.746;2022-12-24T16:37:54;96406.38;;;8.00;100.00
10014;BME280;45684;48.358;10.746;2022-12-24T16:40:23;96406.69;;;7.99;100.00
10014;BME280;45684;48.358;10.746;2022-12-24T16:42:54;96405.09;;;7.98;100.00
10014;BME280;45684;48.358;10.746;2022-12-24T16:45:41;96405.09;;;7.98;100.00
10014;BME280;45684;48.358;10.746;2022-12-24T16:48:17;96402.66;;;7.96;100.00
10014;BME280;45684;48.358;10.746;2022-12-24T16:50:45;96403.28;;;7.93;100.00
10014;BME280;45684;48.358;10.746;2022-12-24T16:53:15;96398.47;;;7.90;100.00
10014;BME280;45684;48.358;10.746;2022-12-24T16:55:44;96392.56;;;7.88;100.00
10014;BME280;45684;48.358;10.746;2022-12-24T16:58:14;96394.44;;;7.87;100.00
10014;BME280;45684;48.358;10.746;2022-12-24T17:00:43;96402.03;;;7.85;100.00
10014;BME280;45684;48.358;10.746;2022-12-24T17:03:11;96401.25;;;7.85;100.00
10014;BME280;45684;48.358;10.746;2022-12-24T17:05:41;96409.88;;;7.82;100.00
10014;BME280;45684;48.358;10.746;2022-12-24T17:08:12;96406.69;;;7.80;100.00
10014;BME280;45684;48.358;10.746;2022-12-24T17:10:48;96410.97;;;7.81;100.00
10014;BME280;45684;48.358;10.746;2022-12-24T17:13:23;96412.88;;;7.80;100.00
10014;BME280;45684;48.358;10.746;2022-12-24T17:15:51;96417.75;;;7.78;100.00
10014;BME280;45684;48.358;10.746;2022-12-24T17:18:19;96419.38;;;7.79;100.00
10014;BME280;45684;48.358;10.746;2022-12-24T17:20:56;96417.75;;;7.78;100.00
10014;BME280;45684;48.358;10.746;2022-12-24T17:23:25;96405.38;;;7.77;100.00
10014;BME280;45684;48.358;10.746;2022-12-24T17:25:55;96404.59;;;7.77;100.00
10014;BME280;45684;48.358;10.746;2022-12-24T17:28:23;96415.34;;;7.77;100.00
10014;BME280;45684;48.358;10.746;2022-12-24T17:30:51;96426.13;;;7.77;100.00
10014;BME280;45684;48.358;10.746;2022-12-24T17:33:19;96417.25;;;7.76;100.00
10014;BME280;45684;48.358;10.746;2022-12-24T17:35:46;96423.94;;;7.79;100.00
10014;BME280;45684;48.358;10.746;2022-12-24T17:38:15;96423.94;;;7.79;100.00
10014;BME280;45684;48.358;10.746;2022-12-24T17:40:43;96422.06;;;7.79;100.00
10014;BME280;45684;48.358;10.746;2022-12-24T17:43:12;96430.31;;;7.83;100.00
10014;BME280;45684;48.358;10.746;2022-12-24T17:45:40;96431.16;;;7.83;100.00
10014;BME280;45684;48.358;10.746;2022-12-24T17:48:08;96432.75;;;7.84;100.00
10014;BME280;45684;48.358;10.746;2022-12-24T17:50:37;96420.66;;;7.82;100.00
10014;BME280;45684;48.358;10.746;2022-12-24T17:53:14;96432.75;;;7.84;100.00
10014;BME280;45684;48.358;10.746;2022-12-24T17:55:42;96429.25;;;7.84;100.00
10014;BME280;45684;48.358;10.746;2022-12-24T17:58:10;96438.94;;;7.85;100.00
10014;BME280;45684;48.358;10.746;2022-12-24T18:00:41;96439.22;;;7.83;100.00
10014;BME280;45684;48.358;10.746;2022-12-24T18:03:11;96440.81;;;7.84;100.00
10014;BME280;45684;48.358;10.746;2022-12-24T18:05:40;96428.47;;;7.83;100.00
10014;BME280;45684;48.358;10.746;2022-12-24T18:08:08;96434.13;;;7.82;100.00
10014;BME280;45684;48.358;10.746;2022-12-24T18:10:36;96433.03;;;7.83;100.00
10014;BME280;45684;48.358;10.746;2022-12-24T18:13:04;96439.22;;;7.83;100.00
10014;BME280;45684;48.358;10.746;2022-12-24T18:15:33;96434.13;;;7.82;100.00
10014;BME280;45684;48.358;10.746;2022-12-24T18:18:03;96432.53;;;7.81;100.00
10014;BME280;45684;48.358;10.746;2022-12-24T18:20:33;96437.09;;;7.80;100.00
10014;BME280;45684;48.358;10.746;2022-12-24T18:23:08;96435.53;;;7.79;100.00
10014;BME280;45684;48.358;10.746;2022-12-24T18:25:36;96428.50;;;7.78;100.00
10014;BME280;45684;48.358;10.746;2022-12-24T18:28:03;96431.19;;;7.78;100.00
10014;BME280;45684;48.358;10.746;2022-12-24T18:30:31;96438.47;;;7.78;100.00
10014;BME280;45684;48.358;10.746;2022-12-24T18:32:59;96430.41;;;7.78;100.00
10014;BME280;45684;48.358;10.746;2022-12-24T18:35:28;96440.69;;;7.76;100.00
10014;BME280;45684;48.358;10.746;2022-12-24T18:37:56;96439.09;;;7.75;100.00
10014;BME280;45684;48.358;10.746;2022-12-24T18:40:26;96446.34;;;7.74;100.00
10014;BME280;45684;48.358;10.746;2022-12-24T18:42:53;96453.59;;;7.74;100.00
10014;BME280;45684;48.358;10.746;2022-12-24T18:45:21;96450.41;;;7.72;100.00
10014;BME280;45684;48.358;10.746;2022-12-24T18:47:49;96452.88;;;7.68;100.00
10014;BME280;45684;48.358;10.746;2022-12-24T18:50:17;96461.75;;;7.68;100.00
10014;BME280;45684;48.358;10.746;2022-12-24T18:52:48;96453.19;;;7.66;100.00
10014;BME280;45684;48.358;10.746;2022-12-24T18:55:23;96451.84;;;7.64;100.00
10014;BME280;45684;48.358;10.746;2022-12-24T18:57:51;96452.94;;;7.63;100.00
10014;BME280;45684;48.358;10.746;2022-12-24T19:00:19;96460.72;;;7.64;100.00
10014;BME280;45684;48.358;10.746;2022-12-24T19:02:49;96458.88;;;7.65;100.00
10014;BME280;45684;48.358;10.746;2022-12-24T19:05:17;96451.59;;;7.65;100.00
10014;BME280;45684;48.358;10.746;2022-12-24T19:07:46;96457.47;;;7.67;100.00
10014;BME280;45684;48.358;10.746;2022-12-24T19:10:14;96461.25;;;7.66;100.00
10014;BME280;45684;48.358;10.746;2022-12-24T19:12:42;96465.84;;;7.66;100.00
10014;BME280;45684;48.358;10.746;2022-12-24T19:15:10;96455.88;;;7.66;100.00
10014;BME280;45684;48.358;10.746;2022-12-24T19:17:38;96452.38;;;7.66;100.00
10014;BME280;45684;48.358;10.746;2022-12-24T19:20:07;96438.13;;;7.65;100.00
10014;BME280;45684;48.358;10.746;2022-12-24T19:22:34;96443.50;;;7.65;100.00
10014;BME280;45684;48.358;10.746;2022-12-24T19:25:04;96441.88;;;7.64;100.00
10014;BME280;45684;48.358;10.746;2022-12-24T19:27:32;96437.59;;;7.63;100.00
10014;BME280;45684;48.358;10.746;2022-12-24T19:30:00;96437.59;;;7.63;100.00
10014;BME280;45684;48.358;10.746;2022-12-24T19:32:28;96433.31;;;7.62;100.00
10014;BME280;45684;48.358;10.746;2022-12-24T19:34:56;96425.25;;;7.62;100.00
10014;BME280;45684;48.358;10.746;2022-12-24T19:37:24;96429.53;;;7.63;100.00
10014;BME280;45684;48.358;10.746;2022-12-24T19:39:51;96432.22;;;7.63;100.00
10014;BME280;45684;48.358;10.746;2022-12-24T19:42:22;96434.13;;;7.63;100.00
10014;BME280;45684;48.358;10.746;2022-12-24T19:44:50;96428.72;;;7.63;100.00
10014;BME280;45684;48.358;10.746;2022-12-24T19:47:18;96443.78;;;7.64;100.00
10014;BME280;45684;48.358;10.746;2022-12-24T19:49:46;96441.38;;;7.62;100.00
10014;BME280;45684;48.358;10.746;2022-12-24T19:52:14;96446.47;;;7.64;100.00
10014;BME280;45684;48.358;10.746;2022-12-24T19:54:42;96451.38;;;7.62;100.00
10014;BME280;45684;48.358;10.746;2022-12-24T19:57:10;96444.38;;;7.61;100.00
10014;BME280;45684;48.358;10.746;2022-12-24T19:59:39;96458.09;;;7.59;100.00
10014;BME280;45684;48.358;10.746;2022-12-24T20:02:08;96447.34;;;7.59;100.00
10014;BME280;45684;48.358;10.746;2022-12-24T20:04:36;96448.97;;;7.60;100.00
10014;BME280;45684;48.358;10.746;2022-12-24T20:07:04;96452.47;;;7.61;100.00
10014;BME280;45684;48.358;10.746;2022-12-24T20:09:32;96459.44;;;7.62;100.00
10014;BME280;45684;48.358;10.746;2022-12-24T20:12:00;96454.84;;;7.62;100.00
10014;BME280;45684;48.358;10.746;2022-12-24T20:14:28;96459.72;;;7.60;100.00
10014;BME280;45684;48.358;10.746;2022-12-24T20:16:57;96452.47;;;7.61;100.00
10014;BME280;45684;48.358;10.746;2022-12-24T20:19:25;96455.16;;;7.61;100.00
10014;BME280;45684;48.358;10.746;2022-12-24T20:21:52;96452.47;;;7.61;100.00
10014;BME280;45684;48.358;10.746;2022-12-24T20:24:20;96452.72;;;7.59;100.00
10014;BME280;45684;48.358;10.746;2022-12-24T20:26:49;96452.47;;;7.61;100.00
10014;BME280;45684;48.358;10.746;2022-12-24T20:29:17;96448.97;;;7.60;100.00
10014;BME280;45684;48.358;10.746;2022-12-24T20:31:45;96450.03;;;7.59;100.00
10014;BME280;45684;48.358;10.746;2022-12-24T20:34:17;96449.75;;;7.61;100.00
10014;BME280;45684;48.358;10.746;2022-12-24T20:36:46;96456.75;;;7.62;100.00
10014;BME280;45684;48.358;10.746;2022-12-24T20:39:16;96462.13;;;7.62;100.00
10014;BME280;45684;48.358;10.746;2022-12-24T20:41:43;96473.19;;;7.60;100.00
10014;BME280;45684;48.358;10.746;2022-12-24T20:44:14;96466.72;;;7.61;100.00
10014;BME280;45684;48.358;10.746;2022-12-24T20:46:42;96468.59;;;7.61;100.00
10014;BME280;45684;48.358;10.746;2022-12-24T20:49:10;96465.63;;;7.62;100.00
10014;BME280;45684;48.358;10.746;2022-12-24T20:51:40;96459.72;;;7.60;100.00
10014;BME280;45684;48.358;10.746;2022-12-24T20:54:09;96461.81;;;7.63;100.00
10014;BME280;45684;48.358;10.746;2022-12-24T20:56:37;96476.09;;;7.64;100.00
10014;BME280;45684;48.358;10.746;2022-12-24T20:59:05;96469.63;;;7.65;100.00
10014;BME280;45684;48.358;10.746;2022-12-24T21:01:34;96474.72;;;7.66;100.00
10014;BME280;45684;48.358;10.746;2022-12-24T21:04:04;96480.09;;;7.66;100.00
10014;BME280;45684;48.358;10.746;2022-12-24T21:06:34;96478.19;;;7.67;100.00
10014;BME280;45684;48.358;10.746;2022-12-24T21:09:03;96482.50;;;7.68;100.00
10014;BME280;45684;48.358;10.746;2022-12-24T21:11:32;96487.06;;;7.67;100.00
10014;BME280;45684;48.358;10.746;2022-12-24T21:14:19;96494.06;;;7.68;100.00
10014;BME280;45684;48.358;10.746;2022-12-24T21:16:48;96484.38;;;7.67;100.00
10014;BME280;45684;48.358;10.746;2022-12-24T21:19:17;96488.16;;;7.66;100.00
10014;BME280;45684;48.358;10.746;2022-12-24T21:21:46;96495.16;;;7.67;100.00
10014;BME280;45684;48.358;10.746;2022-12-24T21:24:15;96484.69;;;7.66;100.00
10014;BME280;45684;48.358;10.746;2022-12-24T21:26:43;96490.06;;;7.66;100.00
10014;BME280;45684;48.358;10.746;2022-12-24T21:29:14;96483.88;;;7.65;100.00
10014;BME280;45684;48.358;10.746;2022-12-24T21:31:42;96491.16;;;7.65;100.00
10014;BME280;45684;48.358;10.746;2022-12-24T21:34:10;96492.22;;;7.64;100.00
10014;BME280;45684;48.358;10.746;2022-12-24T21:36:37;96486.06;;;7.63;100.00
10014;BME280;45684;48.358;10.746;2022-12-24T21:39:05;96491.44;;;7.63;100.00
10014;BME280;45684;48.358;10.746;2022-12-24T21:41:34;96480.66;;;7.63;100.00
10014;BME280;45684;48.358;10.746;2022-12-24T21:44:02;96488.25;;;7.61;100.00
10014;BME280;45684;48.358;10.746;2022-12-24T21:46:30;96493.31;;;7.63;100.00
10014;BME280;45684;48.358;10.746;2022-12-24T21:49:02;96483.66;;;7.62;100.00
10014;BME280;45684;48.358;10.746;2022-12-24T21:51:58;96490.94;;;7.61;100.00
10014;BME280;45684;48.358;10.746;2022-12-24T21:54:26;96496.31;;;7.61;100.00
10014;BME280;45684;48.358;10.746;2022-12-24T21:56:59;96490.41;;;7.59;100.00
10014;BME280;45684;48.358;10.746;2022-12-24T21:59:44;96494.50;;;7.57;100.00
10014;BME280;45684;48.358;10.746;2022-12-24T22:02:14;96493.69;;;7.56;100.00
10014;BME280;45684;48.358;10.746;2022-12-24T22:04:43;96502.81;;;7.55;100.00
10014;BME280;45684;48.358;10.746;2022-12-24T22:07:22;96496.38;;;7.56;100.00
10014;BME280;45684;48.358;10.746;2022-12-24T22:10:08;96491.00;;;7.56;100.00
10014;BME280;45684;48.358;10.746;2022-12-24T22:12:57;96501.47;;;7.58;100.00
10014;BME280;45684;48.358;10.746;2022-12-24T22:15:25;96499.06;;;7.56;100.00
10014;BME280;45684;48.358;10.746;2022-12-24T22:17:53;96504.16;;;7.58;100.00
10014;BME280;45684;48.358;10.746;2022-12-24T22:20:21;96499.06;;;7.56;100.00
10014;BME280;45684;48.358;10.746;2022-12-24T22:22:49;96499.06;;;7.56;100.00
10014;BME280;45684;48.358;10.746;2022-12-24T22:25:17;96498.53;;;7.54;100.00
10014;BME280;45684;48.358;10.746;2022-12-24T22:27:44;96496.94;;;7.53;100.00
10014;BME280;45684;48.358;10.746;2022-12-24T22:30:14;96504.22;;;7.53;100.00
10014;BME280;45684;48.358;10.746;2022-12-24T22:32:42;96507.72;;;7.53;100.00
10014;BME280;45684;48.358;10.746;2022-12-24T22:35:10;96506.91;;;7.53;100.00
10014;BME280;45684;48.358;10.746;2022-12-24T22:37:38;96511.50;;;7.52;100.00
10014;BME280;45684;48.358;10.746;2022-12-24T22:40:07;96509.09;;;7.51;100.00
10014;BME280;45684;48.358;10.746;2022-12-24T22:42:35;96509.09;;;7.51;100.00
10014;BME280;45684;48.358;10.746;2022-12-24T22:45:04;96499.72;;;7.48;100.00
10014;BME280;45684;48.358;10.746;2022-12-24T22:47:33;96505.09;;;7.48;100.00
10014;BME280;45684;48.358;10.746;2022-12-24T22:50:02;96511.25;;;7.49;100.00
10014;BME280;45684;48.358;10.746;2022-12-24T22:52:31;96511.56;;;7.47;100.00
10014;BME280;45684;48.358;10.746;2022-12-24T22:54:59;96513.47;;;7.47;100.00
10014;BME280;45684;48.358;10.746;2022-12-24T22:57:26;96512.13;;;7.44;100.00
10014;BME280;45684;48.358;10.746;2022-12-24T22:59:54;96515.91;;;7.43;100.00
10014;BME280;45684;48.358;10.746;2022-12-24T23:02:22;96517.00;;;7.42;100.00
10014;BME280;45684;48.358;10.746;2022-12-24T23:04:57;96519.16;;;7.40;100.00
10014;BME280;45684;48.358;10.746;2022-12-24T23:07:25;96509.78;;;7.37;100.00
10014;BME280;45684;48.358;10.746;2022-12-24T23:09:53;96519.75;;;7.37;100.00
10014;BME280;45684;48.358;10.746;2022-12-24T23:12:21;96517.34;;;7.35;100.00
10014;BME280;45684;48.358;10.746;2022-12-24T23:15:07;96511.44;;;7.33;100.00
10014;BME280;45684;48.358;10.746;2022-12-24T23:17:38;96506.34;;;7.32;100.00
10014;BME280;45684;48.358;10.746;2022-12-24T23:20:08;96498.78;;;7.34;100.00
10014;BME280;45684;48.358;10.746;2022-12-24T23:22:36;96493.41;;;7.34;100.00
10014;BME280;45684;48.358;10.746;2022-12-24T23:25:04;96491.81;;;7.33;100.00
10014;BME280;45684;48.358;10.746;2022-12-24T23:27:32;96481.88;;;7.33;100.00
10014;BME280;45684;48.358;10.746;2022-12-24T23:30:01;96474.28;;;7.35;100.00
10014;BME280;45684;48.358;10.746;2022-12-24T23:32:30;96467.31;;;7.34;100.00